Time;durP1;ratioP1;P1;durP2;ratioP2;P2;SDS_P1;SDS_P2;PMS_P1;PMS_P2;Temp;Humidity;BMP_temperature;BMP_pressure;BME280_temperature;BME280_humidity;BME280_pressure;Samples;Min_cycle;Max_cycle;Signal;HPM_P1;HPM_P2
2023/09/24 00:00:26;;;;;;;8.43;3.15;;;11.50;99.90;;;;;;4981214;28;20501;-44
2023/09/24 00:02:52;;;;;;;8.07;2.63;;;11.50;99.90;;;;;;4989366;28;20586;-45
2023/09/24 00:05:18;;;;;;;8.38;3.13;;;11.50;99.90;;;;;;4974632;28;20038;-44
2023/09/24 00:07:44;;;;;;;11.52;2.90;;;11.50;99.90;;;;;;4968381;28;20179;-48
2023/09/24 00:10:10;;;;;;;6.07;2.88;;;11.50;99.90;;;;;;4983999;28;20068;-45
2023/09/24 00:12:36;;;;;;;7.75;2.67;;;11.40;99.90;;;;;;5001748;28;20053;-47
2023/09/24 00:15:01;;;;;;;8.07;2.78;;;11.40;99.90;;;;;;4983357;28;20076;-45
2023/09/24 00:17:27;;;;;;;6.40;2.42;;;11.50;99.90;;;;;;5001194;28;20135;-45
2023/09/24 00:19:53;;;;;;;9.20;3.10;;;11.40;99.90;;;;;;5001664;28;20084;-47
2023/09/24 00:22:18;;;;;;;10.82;3.10;;;11.40;99.90;;;;;;4967507;28;20081;-45
2023/09/24 00:24:45;;;;;;;3.40;2.42;;;11.40;99.90;;;;;;5000967;28;20332;-45
2023/09/24 00:27:12;;;;;;;8.55;2.90;;;11.40;99.90;;;;;;4967369;28;20048;-47
2023/09/24 00:29:37;;;;;;;9.82;2.80;;;11.40;99.90;;;;;;4967216;28;20490;-44
2023/09/24 00:32:03;;;;;;;16.70;3.05;;;11.30;99.90;;;;;;4967043;28;20058;-46
2023/09/24 00:34:28;;;;;;;8.55;3.13;;;11.30;99.90;;;;;;4967412;28;20049;-45
2023/09/24 00:36:54;;;;;;;8.40;3.15;;;11.30;99.90;;;;;;5000701;28;20590;-45
2023/09/24 00:39:20;;;;;;;12.30;3.50;;;11.30;99.90;;;;;;5001519;28;20073;-45
2023/09/24 00:41:46;;;;;;;8.55;3.50;;;11.30;99.90;;;;;;4982672;28;20045;-47
2023/09/24 00:44:15;;;;;;;10.05;3.22;;;11.20;99.90;;;;;;5007617;28;20156;-45
2023/09/24 00:46:44;;;;;;;12.50;2.88;;;11.20;99.90;;;;;;5000417;28;20061;-45
2023/09/24 00:49:13;;;;;;;8.70;3.50;;;11.30;99.90;;;;;;4983434;28;20045;-45
2023/09/24 00:51:40;;;;;;;5.97;3.05;;;11.30;99.90;;;;;;5001046;28;20084;-46
2023/09/24 00:54:07;;;;;;;9.95;3.35;;;11.30;99.90;;;;;;5001302;28;20050;-46
2023/09/24 00:56:33;;;;;;;9.90;3.00;;;11.30;99.90;;;;;;4967315;28;20677;-46
2023/09/24 00:58:59;;;;;;;7.78;3.00;;;11.30;99.90;;;;;;5001438;28;20143;-46
2023/09/24 01:01:25;;;;;;;12.63;3.65;;;11.30;99.90;;;;;;4998491;28;20041;-47
2023/09/24 01:03:54;;;;;;;5.47;2.90;;;11.30;99.90;;;;;;4987627;28;20359;-45
2023/09/24 01:06:19;;;;;;;7.05;2.83;;;11.30;99.90;;;;;;4983000;28;20088;-44
2023/09/24 01:08:46;;;;;;;8.23;2.90;;;11.30;99.90;;;;;;5001188;28;20073;-46
2023/09/24 01:11:12;;;;;;;8.02;3.42;;;11.30;99.90;;;;;;5000696;28;20493;-46
2023/09/24 01:13:43;;;;;;;5.20;2.65;;;11.30;99.90;;;;;;5000505;28;20045;-46
2023/09/24 01:16:09;;;;;;;9.07;3.05;;;11.30;99.90;;;;;;4999743;28;20160;-45
2023/09/24 01:18:37;;;;;;;10.23;3.65;;;11.20;99.90;;;;;;5001407;28;20084;-46
2023/09/24 01:21:17;;;;;;;9.85;4.38;;;11.20;99.90;;;;;;5000731;28;20169;-45
2023/09/24 01:23:45;;;;;;;9.77;4.38;;;11.20;99.90;;;;;;4983267;28;20049;-45
2023/09/24 01:26:16;;;;;;;8.27;4.47;;;11.20;99.90;;;;;;4982751;28;20072;-46
2023/09/24 01:28:43;;;;;;;9.05;4.70;;;11.20;99.90;;;;;;4966760;28;20045;-46
2023/09/24 01:31:09;;;;;;;7.47;5.28;;;11.20;99.90;;;;;;4982464;28;20049;-45
2023/09/24 01:33:39;;;;;;;11.13;4.88;;;11.20;99.90;;;;;;4981860;28;20564;-47
2023/09/24 01:36:07;;;;;;;8.50;4.82;;;11.10;99.90;;;;;;4981864;28;20060;-47
2023/09/24 01:38:33;;;;;;;8.43;4.90;;;11.10;99.90;;;;;;4966222;28;20157;-44
2023/09/24 01:40:59;;;;;;;7.43;4.78;;;11.10;99.90;;;;;;5000853;28;20050;-45
2023/09/24 01:43:25;;;;;;;8.48;4.43;;;11.00;99.90;;;;;;5006652;28;20049;-44
2023/09/24 01:45:51;;;;;;;7.20;4.93;;;11.00;99.90;;;;;;5000145;28;20034;-44
2023/09/24 01:48:19;;;;;;;7.20;5.22;;;11.00;99.90;;;;;;5000226;28;20718;-45
2023/09/24 01:50:45;;;;;;;8.65;5.88;;;11.00;99.90;;;;;;5000238;28;20125;-44
2023/09/24 01:53:10;;;;;;;9.07;5.32;;;11.00;99.90;;;;;;4981668;28;20495;-45
2023/09/24 01:55:37;;;;;;;11.75;5.30;;;11.00;99.90;;;;;;4999564;28;20046;-44
2023/09/24 01:58:03;;;;;;;9.70;5.65;;;11.00;99.90;;;;;;4993116;28;20117;-46
2023/09/24 02:00:29;;;;;;;11.02;5.85;;;11.00;99.90;;;;;;4998991;28;20038;-44
2023/09/24 02:03:00;;;;;;;12.93;6.68;;;11.00;99.90;;;;;;4976698;28;20516;-45
2023/09/24 02:05:34;;;;;;;9.88;5.90;;;11.00;99.90;;;;;;4993126;28;20042;-44
2023/09/24 02:08:00;;;;;;;10.98;6.55;;;11.00;99.90;;;;;;4999674;28;20038;-45
2023/09/24 02:10:27;;;;;;;9.57;5.78;;;11.00;99.90;;;;;;4999701;28;20057;-45
2023/09/24 02:12:54;;;;;;;10.80;6.28;;;11.00;99.90;;;;;;4981903;28;20057;-46
2023/09/24 02:15:23;;;;;;;11.57;5.93;;;11.00;99.90;;;;;;4999798;28;20064;-47
2023/09/24 02:17:48;;;;;;;7.90;6.07;;;11.10;99.90;;;;;;4999909;28;20532;-44
2023/09/24 02:20:25;;;;;;;10.32;6.07;;;11.00;99.90;;;;;;4982202;28;20050;-43
2023/09/24 02:22:53;;;;;;;8.30;5.00;;;11.10;99.90;;;;;;4999386;28;20077;-43
2023/09/24 02:25:21;;;;;;;7.90;5.80;;;11.10;99.90;;;;;;4981348;28;20041;-44
2023/09/24 02:27:53;;;;;;;11.05;6.55;;;11.10;99.90;;;;;;4981601;28;20052;-44
2023/09/24 02:30:20;;;;;;;6.88;5.25;;;11.00;99.90;;;;;;4982211;28;20418;-45
2023/09/24 02:32:46;;;;;;;11.40;6.50;;;11.00;99.90;;;;;;4981688;28;20682;-44
2023/09/24 02:35:13;;;;;;;12.20;6.35;;;11.00;99.90;;;;;;4981394;28;20694;-43
2023/09/24 02:37:47;;;;;;;9.88;5.93;;;11.00;99.90;;;;;;4999347;28;20053;-47
2023/09/24 02:40:32;;;;;;;23.23;7.30;;;10.90;99.90;;;;;;4969437;28;20053;-44
2023/09/24 02:42:59;;;;;;;10.30;6.18;;;10.90;99.90;;;;;;4962605;28;20478;-44
2023/09/24 02:45:26;;;;;;;10.95;6.22;;;10.90;99.90;;;;;;4999877;28;20038;-47
2023/09/24 02:47:52;;;;;;;11.55;7.03;;;10.80;99.90;;;;;;4999860;28;20349;-45
2023/09/24 02:50:21;;;;;;;14.23;7.45;;;10.80;99.90;;;;;;4982063;28;20049;-44
2023/09/24 02:52:47;;;;;;;10.43;6.70;;;10.70;99.90;;;;;;4998817;28;20610;-43
2023/09/24 02:55:13;;;;;;;11.05;7.32;;;10.70;99.90;;;;;;4999222;28;20042;-47
2023/09/24 02:57:45;;;;;;;11.20;7.90;;;10.70;99.90;;;;;;4981211;28;20505;-43
2023/09/24 03:00:26;;;;;;;13.13;7.85;;;10.60;99.90;;;;;;4981438;28;20085;-43
2023/09/24 03:03:00;;;;;;;11.23;6.97;;;10.70;99.90;;;;;;4975243;28;20408;-43
2023/09/24 03:05:26;;;;;;;15.00;7.88;;;10.60;99.90;;;;;;4998971;28;20204;-45
2023/09/24 03:07:53;;;;;;;9.45;7.93;;;10.60;99.90;;;;;;4999887;28;20042;-44
2023/09/24 03:10:19;;;;;;;14.75;8.52;;;10.60;99.90;;;;;;4998190;28;20119;-44
2023/09/24 03:12:46;;;;;;;13.30;8.43;;;10.60;99.90;;;;;;4988216;28;20050;-45
2023/09/24 03:15:12;;;;;;;11.75;8.63;;;10.50;99.90;;;;;;4998847;28;20152;-46
2023/09/24 03:17:39;;;;;;;14.38;9.07;;;10.50;99.90;;;;;;4999439;28;20487;-46
2023/09/24 03:20:11;;;;;;;12.55;8.73;;;10.50;99.90;;;;;;4981233;28;20049;-45
2023/09/24 03:22:37;;;;;;;13.13;8.20;;;10.50;99.90;;;;;;4999171;28;20073;-45
2023/09/24 03:25:03;;;;;;;14.18;8.77;;;10.50;99.90;;;;;;4980430;28;20584;-43
2023/09/24 03:27:28;;;;;;;16.27;9.18;;;10.50;99.90;;;;;;4999387;28;20046;-44
2023/09/24 03:29:54;;;;;;;14.20;8.50;;;10.50;99.90;;;;;;4980734;28;20496;-42
2023/09/24 03:32:19;;;;;;;16.13;9.02;;;10.40;99.90;;;;;;4980602;28;20057;-47
2023/09/24 03:34:45;;;;;;;12.25;8.40;;;10.40;99.90;;;;;;4997859;28;20448;-44
2023/09/24 03:37:14;;;;;;;13.07;8.85;;;10.40;99.90;;;;;;4981329;28;20096;-47
2023/09/24 03:39:40;;;;;;;14.95;9.43;;;10.30;99.90;;;;;;5001120;28;20061;-46
2023/09/24 03:42:05;;;;;;;15.77;9.63;;;10.40;99.90;;;;;;4998454;28;20513;-44
2023/09/24 03:44:31;;;;;;;15.50;9.43;;;10.40;99.90;;;;;;4971859;28;20189;-45
2023/09/24 03:46:56;;;;;;;12.77;10.05;;;10.40;99.90;;;;;;4984591;28;20045;-45
2023/09/24 03:49:22;;;;;;;14.80;9.60;;;10.30;99.90;;;;;;5002411;28;20053;-44
2023/09/24 03:51:48;;;;;;;14.25;10.10;;;10.40;99.90;;;;;;4985424;28;20314;-43
2023/09/24 03:54:14;;;;;;;11.52;9.32;;;10.40;99.90;;;;;;4984762;28;20505;-44
2023/09/24 03:56:40;;;;;;;13.95;10.02;;;10.30;99.90;;;;;;5002368;28;20072;-44
2023/09/24 03:59:05;;;;;;;11.57;8.73;;;10.30;99.90;;;;;;4983997;28;20065;-45
2023/09/24 04:01:31;;;;;;;13.43;9.60;;;10.40;99.90;;;;;;4966699;28;20372;-43
2023/09/24 04:03:59;;;;;;;14.25;9.73;;;10.40;99.90;;;;;;4982681;28;20466;-43
2023/09/24 04:06:24;;;;;;;14.40;9.80;;;10.50;99.90;;;;;;5000545;28;20056;-48
2023/09/24 04:08:50;;;;;;;12.25;9.77;;;10.50;99.90;;;;;;5001160;28;20030;-45
2023/09/24 04:11:16;;;;;;;11.70;9.07;;;10.60;99.90;;;;;;5002547;28;20041;-47
2023/09/24 04:13:42;;;;;;;16.90;9.48;;;10.60;99.90;;;;;;5001224;28;20084;-45
2023/09/24 04:16:09;;;;;;;18.50;9.95;;;10.70;99.90;;;;;;4983729;28;20128;-45
2023/09/24 04:18:35;;;;;;;14.13;8.35;;;10.70;99.90;;;;;;5001502;28;20192;-43
2023/09/24 04:21:02;;;;;;;14.95;9.50;;;10.70;99.90;;;;;;5001596;28;20081;-44
2023/09/24 04:23:28;;;;;;;12.18;9.00;;;10.60;99.90;;;;;;5001121;28;20081;-44
2023/09/24 04:25:54;;;;;;;13.25;9.13;;;10.60;99.90;;;;;;4966964;28;20053;-46
2023/09/24 04:28:20;;;;;;;16.80;8.55;;;10.60;99.90;;;;;;5001344;28;20374;-44
2023/09/24 04:30:46;;;;;;;13.05;9.13;;;10.50;99.90;;;;;;5001665;28;20123;-44
2023/09/24 04:33:12;;;;;;;11.52;8.70;;;10.50;99.90;;;;;;5001450;28;20046;-44
2023/09/24 04:35:37;;;;;;;14.23;9.50;;;10.40;99.90;;;;;;4983238;28;20052;-43
2023/09/24 04:38:03;;;;;;;16.92;10.05;;;10.40;99.90;;;;;;5001564;28;20683;-44
2023/09/24 04:40:29;;;;;;;12.70;9.10;;;10.30;99.90;;;;;;5001202;28;20133;-43
2023/09/24 04:42:54;;;;;;;12.07;9.38;;;10.30;99.90;;;;;;5000489;28;20080;-43
2023/09/24 04:45:20;;;;;;;15.88;9.10;;;10.20;99.90;;;;;;5000474;28;20345;-43
2023/09/24 04:47:48;;;;;;;15.95;9.32;;;10.20;99.90;;;;;;4983543;28;20081;-44
2023/09/24 04:50:14;;;;;;;15.35;9.23;;;10.10;99.90;;;;;;5000692;28;20053;-43
2023/09/24 04:52:41;;;;;;;13.40;10.40;;;10.10;99.90;;;;;;4975408;28;20057;-43
2023/09/24 04:55:08;;;;;;;13.25;9.40;;;10.10;99.90;;;;;;4998160;28;20397;-44
2023/09/24 04:57:33;;;;;;;15.85;9.48;;;10.10;99.90;;;;;;5000572;28;20741;-43
2023/09/24 04:59:59;;;;;;;13.68;10.13;;;10.00;99.90;;;;;;5001015;28;20362;-43
2023/09/24 05:02:25;;;;;;;14.15;9.48;;;10.00;99.90;;;;;;4999213;28;20037;-44
2023/09/24 05:04:52;;;;;;;16.48;11.05;;;10.00;99.90;;;;;;4998962;28;20042;-44
2023/09/24 05:07:18;;;;;;;14.80;10.43;;;9.90;99.90;;;;;;4999852;28;20057;-46
2023/09/24 05:09:44;;;;;;;14.65;10.05;;;9.90;99.90;;;;;;5000667;28;20383;-44
2023/09/24 05:12:12;;;;;;;17.55;10.88;;;9.90;99.90;;;;;;5000515;28;20056;-44
2023/09/24 05:14:38;;;;;;;15.77;11.35;;;9.90;99.90;;;;;;4981934;28;20050;-43
2023/09/24 05:17:03;;;;;;;17.42;11.20;;;9.90;99.90;;;;;;5000231;28;20466;-44
2023/09/24 05:19:29;;;;;;;16.13;10.93;;;9.90;99.90;;;;;;4982620;28;20053;-48
2023/09/24 05:21:54;;;;;;;20.63;11.18;;;9.90;99.90;;;;;;5000603;28;20050;-46
2023/09/24 05:24:20;;;;;;;17.77;11.05;;;9.90;99.90;;;;;;4999706;28;20053;-47
2023/09/24 05:26:46;;;;;;;16.35;11.63;;;9.90;99.90;;;;;;5000460;28;20052;-43
2023/09/24 05:29:11;;;;;;;18.70;11.82;;;9.90;99.90;;;;;;5000174;28;20041;-44
2023/09/24 05:31:38;;;;;;;15.18;10.20;;;9.90;99.90;;;;;;4982515;28;20045;-44
2023/09/24 05:34:04;;;;;;;18.73;11.18;;;9.80;99.90;;;;;;4999704;28;20268;-44
2023/09/24 05:36:30;;;;;;;13.75;10.27;;;9.80;99.90;;;;;;4999564;28;20034;-44
2023/09/24 05:38:57;;;;;;;15.40;10.77;;;9.90;99.90;;;;;;5000307;28;20073;-44
2023/09/24 05:41:22;;;;;;;19.88;11.35;;;9.90;99.90;;;;;;4982005;28;20239;-43
2023/09/24 05:43:48;;;;;;;20.25;11.15;;;9.90;99.90;;;;;;4999603;28;20108;-43
2023/09/24 05:46:16;;;;;;;16.40;10.75;;;9.90;99.90;;;;;;4981532;28;20128;-43
2023/09/24 05:48:43;;;;;;;14.45;11.75;;;9.90;99.90;;;;;;4999889;28;20524;-44
2023/09/24 05:51:09;;;;;;;17.77;10.95;;;10.00;99.90;;;;;;4999913;28;20539;-43
2023/09/24 05:53:34;;;;;;;18.13;11.70;;;10.00;99.90;;;;;;4981593;28;20058;-45
2023/09/24 05:56:03;;;;;;;17.30;10.27;;;10.00;99.90;;;;;;4981571;28;20450;-44
2023/09/24 05:58:29;;;;;;;17.77;11.63;;;10.10;99.90;;;;;;4966174;28;20041;-43
2023/09/24 06:00:58;;;;;;;21.08;11.68;;;10.10;99.90;;;;;;4999603;28;20099;-44
2023/09/24 06:03:24;;;;;;;15.32;10.82;;;10.20;99.90;;;;;;4973021;28;20049;-43
2023/09/24 06:05:50;;;;;;;15.45;10.45;;;10.50;99.90;;;;;;4981282;28;20038;-45
2023/09/24 06:08:16;;;;;;;13.80;9.98;;;11.00;99.90;;;;;;4982268;28;20532;-43
2023/09/24 06:10:45;;;;;;;22.30;10.70;;;11.40;99.90;;;;;;4999051;28;20054;-45
2023/09/24 06:13:14;;;;;;;17.30;10.80;;;11.60;99.90;;;;;;4981167;28;20100;-45
2023/09/24 06:15:40;;;;;;;15.63;10.65;;;11.80;99.90;;;;;;4998773;28;20128;-46
2023/09/24 06:18:06;;;;;;;13.00;9.05;;;12.30;99.90;;;;;;4999746;28;20495;-45
2023/09/24 06:20:36;;;;;;;11.20;9.00;;;12.80;99.90;;;;;;4999262;28;20046;-46
2023/09/24 06:23:02;;;;;;;10.32;8.57;;;13.40;99.90;;;;;;4998758;28;20041;-44
2023/09/24 06:25:28;;;;;;;9.88;8.00;;;14.10;99.90;;;;;;4998867;28;20456;-44
2023/09/24 06:27:54;;;;;;;12.30;8.80;;;14.70;99.90;;;;;;4999486;28;20050;-46
2023/09/24 06:30:19;;;;;;;13.85;8.15;;;15.20;99.90;;;;;;4999105;28;20038;-45
2023/09/24 06:32:45;;;;;;;14.07;8.60;;;15.60;99.90;;;;;;4998754;28;20502;-46
2023/09/24 06:35:11;;;;;;;13.23;8.90;;;15.70;99.90;;;;;;4968212;28;20053;-46
2023/09/24 06:37:36;;;;;;;11.93;9.52;;;15.20;99.90;;;;;;4981328;28;20823;-44
2023/09/24 06:40:03;;;;;;;10.95;7.75;;;14.80;99.90;;;;;;4965589;28;20135;-43
2023/09/24 06:42:28;;;;;;;12.43;8.38;;;14.40;99.90;;;;;;4988050;28;20046;-45
2023/09/24 06:44:54;;;;;;;11.55;7.85;;;14.10;99.90;;;;;;4997609;28;20038;-44
2023/09/24 06:47:19;;;;;;;12.77;8.50;;;13.80;99.90;;;;;;4999339;28;20049;-44
2023/09/24 06:49:51;;;;;;;13.82;8.80;;;13.50;99.90;;;;;;4999060;28;20057;-45
2023/09/24 06:52:17;;;;;;;11.30;7.95;;;13.50;99.90;;;;;;4998580;28;20041;-44
2023/09/24 06:54:42;;;;;;;15.90;9.18;;;13.50;99.90;;;;;;4998501;28;20854;-48
2023/09/24 06:57:08;;;;;;;12.48;8.13;;;13.50;99.90;;;;;;4981124;28;20133;-44
2023/09/24 06:59:34;;;;;;;10.45;8.07;;;13.60;99.90;;;;;;4998823;28;20053;-45
2023/09/24 07:01:59;;;;;;;12.32;8.40;;;13.80;99.90;;;;;;4977638;28;20046;-47
2023/09/24 07:04:25;;;;;;;10.10;8.25;;;13.70;99.90;;;;;;4997742;28;20038;-44
2023/09/24 07:06:51;;;;;;;14.50;10.02;;;13.80;99.90;;;;;;4998788;28;20033;-44
2023/09/24 07:09:17;;;;;;;10.82;8.52;;;13.80;99.90;;;;;;4981222;28;20120;-43
2023/09/24 07:11:43;;;;;;;11.73;8.68;;;13.80;99.90;;;;;;4998924;28;20567;-45
2023/09/24 07:14:09;;;;;;;11.15;8.95;;;13.80;99.90;;;;;;5000198;28;20049;-47
2023/09/24 07:16:35;;;;;;;11.35;8.73;;;13.80;99.90;;;;;;4985462;28;20104;-44
2023/09/24 07:19:01;;;;;;;10.50;7.82;;;13.90;99.90;;;;;;4985860;28;20037;-43
2023/09/24 07:21:30;;;;;;;14.35;8.55;;;14.00;99.90;;;;;;4985350;28;20480;-46
2023/09/24 07:23:57;;;;;;;14.85;9.82;;;14.10;99.90;;;;;;4965616;28;20053;-48
2023/09/24 07:26:23;;;;;;;13.68;8.77;;;14.00;99.90;;;;;;4984906;28;20121;-44
2023/09/24 07:28:49;;;;;;;12.43;8.35;;;14.20;99.90;;;;;;4985704;28;20197;-45
2023/09/24 07:31:19;;;;;;;12.88;7.70;;;14.30;99.90;;;;;;5003546;28;20050;-49
2023/09/24 07:33:46;;;;;;;10.48;7.80;;;14.40;99.90;;;;;;4985137;28;20057;-49
2023/09/24 07:36:12;;;;;;;10.52;7.78;;;14.40;99.90;;;;;;5002411;28;20088;-46
2023/09/24 07:38:40;;;;;;;12.23;7.55;;;14.50;99.90;;;;;;4968865;28;20084;-43
2023/09/24 07:41:09;;;;;;;11.25;8.40;;;14.50;99.90;;;;;;5002808;28;20045;-47
2023/09/24 07:43:39;;;;;;;10.23;7.80;;;14.60;99.90;;;;;;4999606;28;20356;-45
2023/09/24 07:46:06;;;;;;;11.25;7.85;;;14.70;99.90;;;;;;5001993;28;20307;-47
2023/09/24 07:48:32;;;;;;;11.52;7.03;;;14.70;99.90;;;;;;5002328;28;20569;-45
2023/09/24 07:50:58;;;;;;;13.10;7.30;;;14.80;99.90;;;;;;4984578;28;20050;-45
2023/09/24 07:53:24;;;;;;;10.65;6.63;;;14.80;99.90;;;;;;4984319;28;20063;-43
2023/09/24 07:55:55;;;;;;;10.13;6.85;;;14.90;99.90;;;;;;5001752;28;20096;-46
2023/09/24 07:58:22;;;;;;;11.35;6.72;;;14.80;99.90;;;;;;4968292;28;20053;-43
2023/09/24 08:00:47;;;;;;;11.40;6.95;;;14.90;99.90;;;;;;4984248;28;20379;-46
2023/09/24 08:03:13;;;;;;;9.73;7.05;;;14.80;99.90;;;;;;5001315;28;20217;-44
2023/09/24 08:05:39;;;;;;;12.32;7.15;;;14.80;99.90;;;;;;4983680;28;20100;-44
2023/09/24 08:08:05;;;;;;;9.30;6.80;;;14.80;99.90;;;;;;4984928;28;20049;-45
2023/09/24 08:10:31;;;;;;;8.40;6.82;;;14.90;99.90;;;;;;4981891;28;20188;-45
2023/09/24 08:12:56;;;;;;;12.02;6.90;;;15.00;99.90;;;;;;4981183;28;20132;-43
2023/09/24 08:15:22;;;;;;;11.38;6.50;;;15.10;99.90;;;;;;4978519;28;20068;-45
2023/09/24 08:17:48;;;;;;;13.27;6.78;;;15.20;99.90;;;;;;4997098;28;20052;-45
2023/09/24 08:20:14;;;;;;;9.77;6.88;;;15.20;99.90;;;;;;4996386;28;20042;-43
2023/09/24 08:22:39;;;;;;;9.73;6.50;;;15.30;99.90;;;;;;5001834;28;20041;-44
2023/09/24 08:25:05;;;;;;;10.48;6.03;;;15.40;99.90;;;;;;5000605;28;20448;-44
2023/09/24 08:27:31;;;;;;;10.93;6.97;;;15.40;99.90;;;;;;5002159;28;20084;-45
2023/09/24 08:29:57;;;;;;;12.88;6.53;;;15.50;99.90;;;;;;4984771;28;20442;-45
2023/09/24 08:32:23;;;;;;;8.48;6.22;;;15.50;99.90;;;;;;5002110;28;20049;-44
2023/09/24 08:34:49;;;;;;;10.70;6.32;;;15.50;99.90;;;;;;5008564;28;20057;-46
2023/09/24 08:37:15;;;;;;;12.38;6.38;;;15.50;99.90;;;;;;4984894;28;20045;-47
2023/09/24 08:39:42;;;;;;;8.00;5.25;;;15.60;99.90;;;;;;5002429;28;20046;-44
2023/09/24 08:42:10;;;;;;;8.40;5.18;;;15.80;99.90;;;;;;4994590;28;20899;-47
2023/09/24 08:44:39;;;;;;;13.38;5.65;;;15.80;99.90;;;;;;4981440;28;20053;-46
2023/09/24 08:47:05;;;;;;;8.55;5.45;;;15.90;99.90;;;;;;5002757;28;20594;-45
2023/09/24 08:49:31;;;;;;;11.68;5.88;;;16.00;99.90;;;;;;5003323;28;20077;-49
2023/09/24 08:51:58;;;;;;;9.38;5.97;;;15.90;99.90;;;;;;4949988;28;20089;-46
2023/09/24 08:54:24;;;;;;;12.93;5.95;;;16.10;99.90;;;;;;4965430;28;20050;-48
2023/09/24 08:56:50;;;;;;;7.80;5.63;;;16.10;99.90;;;;;;5002787;28;20535;-44
2023/09/24 08:59:16;;;;;;;10.48;5.47;;;16.10;99.90;;;;;;5002650;28;20065;-45
2023/09/24 09:01:41;;;;;;;10.95;5.25;;;16.20;99.90;;;;;;5001908;28;20927;-46
2023/09/24 09:04:07;;;;;;;11.57;4.93;;;16.20;99.90;;;;;;5001793;28;20448;-47
2023/09/24 09:06:35;;;;;;;13.00;5.60;;;16.30;99.90;;;;;;4993012;28;20037;-47
2023/09/24 09:09:01;;;;;;;7.70;4.78;;;16.20;99.90;;;;;;4995217;28;20048;-45
2023/09/24 09:11:47;;;;;;;9.85;5.30;;;16.20;99.90;;;;;;4996472;28;20049;-49
2023/09/24 09:14:13;;;;;;;10.65;5.82;;;16.30;99.90;;;;;;4992552;28;20057;-46
2023/09/24 09:16:57;;;;;;;12.25;5.32;;;16.40;99.90;;;;;;5014828;28;20651;-44
2023/09/24 09:19:43;;;;;;;10.02;5.20;;;16.30;99.90;;;;;;4996069;28;20048;-45
2023/09/24 09:22:28;;;;;;;7.65;4.63;;;16.30;99.90;;;;;;5003176;28;20046;-46
2023/09/24 09:25:04;;;;;;;9.35;4.70;;;16.30;99.90;;;;;;5012492;28;20388;-46
2023/09/24 09:27:34;;;;;;;9.73;4.57;;;16.30;99.90;;;;;;5013494;28;21097;-45
2023/09/24 09:30:29;;;;;;;8.55;4.20;;;16.30;99.90;;;;;;5017939;28;20393;-46
2023/09/24 09:32:55;;;;;;;8.48;4.28;;;16.40;99.90;;;;;;5003421;28;20064;-45
2023/09/24 09:35:32;;;;;;;7.90;4.80;;;16.40;99.90;;;;;;5016881;28;20037;-47
2023/09/24 09:38:11;;;;;;;7.45;3.90;;;16.40;99.90;;;;;;5013624;28;20049;-44
2023/09/24 09:40:37;;;;;;;9.07;4.10;;;16.50;99.90;;;;;;4982932;28;20045;-45
2023/09/24 09:43:05;;;;;;;10.60;4.40;;;16.50;99.90;;;;;;4981409;28;20353;-47
2023/09/24 09:45:32;;;;;;;8.80;3.92;;;16.60;99.90;;;;;;5000919;28;20516;-45
2023/09/24 09:48:04;;;;;;;7.97;3.40;;;16.80;99.90;;;;;;5000679;28;20049;-45
2023/09/24 09:50:36;;;;;;;11.73;3.78;;;16.80;99.90;;;;;;4982693;28;20060;-48
2023/09/24 09:53:07;;;;;;;6.88;3.50;;;16.90;99.90;;;;;;4966476;28;20058;-47
2023/09/24 09:55:39;;;;;;;8.93;3.53;;;16.90;99.90;;;;;;4982215;28;20054;-44
2023/09/24 09:58:07;;;;;;;7.70;3.85;;;16.90;99.90;;;;;;4983532;28;20260;-46
2023/09/24 10:00:33;;;;;;;7.78;3.60;;;16.90;99.90;;;;;;4982474;28;20052;-44
2023/09/24 10:03:00;;;;;;;6.88;3.08;;;17.00;99.90;;;;;;4993320;28;20456;-46
2023/09/24 10:05:27;;;;;;;10.10;3.65;;;17.10;99.90;;;;;;5000125;28;20045;-44
2023/09/24 10:07:53;;;;;;;10.02;4.40;;;17.10;99.90;;;;;;4982201;28;20053;-46
2023/09/24 10:10:31;;;;;;;7.07;2.90;;;17.20;99.90;;;;;;4999691;28;20065;-46
2023/09/24 10:12:58;;;;;;;9.98;3.42;;;17.30;99.90;;;;;;4998868;28;20104;-45
2023/09/24 10:15:28;;;;;;;6.93;3.20;;;17.30;99.90;;;;;;4998751;28;20473;-45
2023/09/24 10:18:09;;;;;;;8.23;3.13;;;17.30;99.90;;;;;;4982294;28;20572;-45
2023/09/24 10:20:50;;;;;;;9.32;3.03;;;17.30;99.90;;;;;;4999378;28;20050;-44
2023/09/24 10:23:32;;;;;;;5.47;3.08;;;17.30;99.90;;;;;;4999986;28;20037;-46
2023/09/24 10:26:04;;;;;;;7.65;2.97;;;17.40;99.90;;;;;;4999255;28;20125;-45
2023/09/24 10:28:50;;;;;;;8.13;3.40;;;17.30;99.90;;;;;;4999962;28;20120;-45
2023/09/24 10:31:24;;;;;;;7.55;2.70;;;17.30;99.90;;;;;;4980835;28;20062;-45
2023/09/24 10:34:02;;;;;;;7.93;3.35;;;17.30;99.90;;;;;;4980437;28;20127;-46
2023/09/24 10:36:30;;;;;;;6.72;2.58;;;17.30;99.90;;;;;;4980164;28;20041;-45
2023/09/24 10:39:06;;;;;;;5.78;2.63;;;17.40;99.90;;;;;;4999883;28;21606;-45
2023/09/24 10:41:33;;;;;;;6.18;3.13;;;17.40;99.90;;;;;;4980937;28;20050;-47
2023/09/24 10:44:25;;;;;;;7.18;3.08;;;17.50;99.90;;;;;;4999468;28;20034;-47
2023/09/24 10:46:51;;;;;;;6.32;2.83;;;17.60;99.90;;;;;;4980679;28;20094;-47
2023/09/24 10:49:21;;;;;;;6.68;2.92;;;17.70;99.90;;;;;;4965103;28;20103;-46
2023/09/24 10:51:47;;;;;;;7.75;2.72;;;17.70;99.90;;;;;;4998439;28;20034;-46
2023/09/24 10:54:17;;;;;;;9.60;2.85;;;17.70;99.90;;;;;;4998470;28;20401;-46
2023/09/24 10:56:49;;;;;;;5.55;2.22;;;17.70;99.90;;;;;;4979275;28;20568;-45
2023/09/24 10:59:15;;;;;;;6.20;2.75;;;17.60;99.90;;;;;;4981193;28;20041;-46
2023/09/24 11:01:42;;;;;;;6.28;2.80;;;17.80;99.90;;;;;;4979856;28;20498;-48
2023/09/24 11:04:09;;;;;;;7.68;2.92;;;17.70;99.90;;;;;;4964754;28;20037;-46
2023/09/24 11:06:35;;;;;;;7.40;2.42;;;17.70;99.90;;;;;;4964894;28;20046;-46
2023/09/24 11:09:31;;;;;;;8.63;3.75;;;17.70;99.90;;;;;;4964931;28;20044;-49
2023/09/24 11:11:57;;;;;;;5.40;2.00;;;17.80;99.90;;;;;;4977468;28;20049;-44
2023/09/24 11:14:24;;;;;;;6.53;2.50;;;17.80;99.90;;;;;;4999455;28;20088;-45
2023/09/24 11:16:51;;;;;;;6.53;2.97;;;17.80;99.90;;;;;;4965492;28;20050;-47
2023/09/24 11:19:41;;;;;;;5.00;2.45;;;17.90;99.90;;;;;;4980553;28;20126;-45
2023/09/24 11:22:21;;;;;;;6.85;2.80;;;18.00;99.90;;;;;;4965441;28;20046;-44
2023/09/24 11:24:50;;;;;;;5.18;2.30;;;18.10;99.90;;;;;;4999307;28;20048;-44
2023/09/24 11:27:17;;;;;;;8.55;2.85;;;18.10;99.90;;;;;;4965473;28;20052;-46
2023/09/24 11:29:59;;;;;;;4.57;2.30;;;18.20;99.90;;;;;;4998741;28;20425;-46
2023/09/24 11:32:27;;;;;;;5.75;2.30;;;18.40;99.90;;;;;;4999333;28;20412;-46
2023/09/24 11:35:25;;;;;;;4.28;2.10;;;18.30;99.90;;;;;;4981387;28;20050;-45
2023/09/24 11:37:54;;;;;;;4.35;2.28;;;18.30;99.90;;;;;;4944389;28;20053;-48
2023/09/24 11:40:31;;;;;;;5.68;2.53;;;18.40;99.90;;;;;;4999396;28;20596;-46
2023/09/24 11:43:02;;;;;;;8.32;2.40;;;18.40;99.90;;;;;;4994244;28;20417;-49
2023/09/24 11:45:43;;;;;;;3.78;1.65;;;18.40;99.90;;;;;;4979893;28;20116;-46
2023/09/24 11:48:11;;;;;;;3.88;1.90;;;18.50;99.90;;;;;;4995972;28;20112;-46
2023/09/24 11:50:38;;;;;;;3.78;1.70;;;18.60;99.90;;;;;;4997937;28;20059;-47
2023/09/24 11:53:04;;;;;;;4.88;2.30;;;18.60;99.90;;;;;;4996482;28;20073;-49
2023/09/24 11:55:30;;;;;;;4.97;2.20;;;18.50;99.90;;;;;;4980155;28;20555;-47
2023/09/24 11:57:56;;;;;;;6.68;2.15;;;18.40;99.90;;;;;;4964781;28;20068;-48
2023/09/24 12:00:22;;;;;;;5.63;1.90;;;18.40;99.90;;;;;;4982987;28;20057;-49
2023/09/24 12:02:48;;;;;;;6.18;2.65;;;18.40;99.90;;;;;;4995055;28;20072;-45
2023/09/24 12:05:15;;;;;;;5.40;2.15;;;18.40;99.90;;;;;;5002703;28;20042;-47
2023/09/24 12:07:41;;;;;;;5.97;2.38;;;18.40;99.90;;;;;;4985074;28;20137;-48
2023/09/24 12:10:07;;;;;;;6.40;2.35;;;18.30;99.90;;;;;;5002493;28;20057;-45
2023/09/24 12:12:32;;;;;;;5.57;1.90;;;18.30;99.90;;;;;;5002467;28;20207;-48
2023/09/24 12:14:58;;;;;;;7.43;2.20;;;18.30;99.90;;;;;;4984729;28;20187;-46
2023/09/24 12:17:23;;;;;;;5.93;2.13;;;18.20;99.90;;;;;;4984481;28;20049;-46
2023/09/24 12:19:49;;;;;;;7.95;2.53;;;18.20;99.90;;;;;;5002667;28;20048;-47
2023/09/24 12:22:19;;;;;;;6.10;2.40;;;18.30;99.90;;;;;;4984840;28;20092;-46
2023/09/24 12:24:44;;;;;;;5.07;2.25;;;18.20;99.90;;;;;;5002141;28;20540;-45
2023/09/24 12:27:10;;;;;;;7.10;2.67;;;18.30;99.90;;;;;;4984835;28;20044;-48
2023/09/24 12:29:36;;;;;;;4.32;1.85;;;18.40;99.90;;;;;;5002111;28;20104;-49
2023/09/24 12:32:02;;;;;;;7.10;2.60;;;18.40;99.90;;;;;;4984607;28;20499;-45
2023/09/24 12:34:27;;;;;;;5.70;2.47;;;18.50;99.90;;;;;;4984017;28;20311;-46
2023/09/24 12:36:54;;;;;;;5.30;2.08;;;18.50;99.90;;;;;;5001946;28;20056;-47
2023/09/24 12:39:20;;;;;;;5.47;2.97;;;18.60;99.90;;;;;;5001508;28;20042;-47
2023/09/24 12:41:49;;;;;;;3.95;2.28;;;18.60;99.90;;;;;;5001523;28;20038;-46
2023/09/24 12:44:17;;;;;;;7.00;2.50;;;18.60;99.90;;;;;;4984454;28;20041;-46